sensor_id;sensor_type;location;lat;lon;timestamp;P1;durP1;ratioP1;P2;durP2;ratioP2
42140;SDS011;27809;51.864;5.646;2023-07-31T00:01:19;1.77;;;0.85;;
42140;SDS011;27809;51.864;5.646;2023-07-31T00:03:45;2.55;;;0.50;;
42140;SDS011;27809;51.864;5.646;2023-07-31T00:06:10;1.50;;;0.70;;
42140;SDS011;27809;51.864;5.646;2023-07-31T00:08:36;1.35;;;0.50;;
42140;SDS011;27809;51.864;5.646;2023-07-31T00:11:01;1.88;;;1.00;;
42140;SDS011;27809;51.864;5.646;2023-07-31T00:13:27;3.90;;;1.00;;
42140;SDS011;27809;51.864;5.646;2023-07-31T00:15:52;2.15;;;1.13;;
42140;SDS011;27809;51.864;5.646;2023-07-31T00:18:18;7.00;;;2.70;;
42140;SDS011;27809;51.864;5.646;2023-07-31T00:20:43;5.47;;;2.33;;
42140;SDS011;27809;51.864;5.646;2023-07-31T00:23:09;18.38;;;5.50;;
42140;SDS011;27809;51.864;5.646;2023-07-31T00:25:34;20.50;;;6.32;;
42140;SDS011;27809;51.864;5.646;2023-07-31T00:28:00;16.67;;;5.25;;
42140;SDS011;27809;51.864;5.646;2023-07-31T00:30:25;22.60;;;6.00;;
42140;SDS011;27809;51.864;5.646;2023-07-31T00:32:52;22.70;;;6.32;;
42140;SDS011;27809;51.864;5.646;2023-07-31T00:35:17;28.98;;;7.70;;
42140;SDS011;27809;51.864;5.646;2023-07-31T00:37:43;27.02;;;8.27;;
42140;SDS011;27809;51.864;5.646;2023-07-31T00:40:08;25.02;;;7.00;;
42140;SDS011;27809;51.864;5.646;2023-07-31T00:42:34;22.27;;;8.15;;
42140;SDS011;27809;51.864;5.646;2023-07-31T00:44:59;19.27;;;6.93;;
42140;SDS011;27809;51.864;5.646;2023-07-31T00:47:25;24.70;;;7.78;;
42140;SDS011;27809;51.864;5.646;2023-07-31T00:49:51;26.60;;;8.23;;
42140;SDS011;27809;51.864;5.646;2023-07-31T00:52:17;24.98;;;6.90;;
42140;SDS011;27809;51.864;5.646;2023-07-31T00:54:44;25.88;;;7.38;;
42140;SDS011;27809;51.864;5.646;2023-07-31T00:57:09;20.17;;;6.75;;
42140;SDS011;27809;51.864;5.646;2023-07-31T00:59:35;24.63;;;6.93;;
42140;SDS011;27809;51.864;5.646;2023-07-31T01:02:01;25.55;;;6.40;;
42140;SDS011;27809;51.864;5.646;2023-07-31T01:04:27;24.02;;;6.28;;
42140;SDS011;27809;51.864;5.646;2023-07-31T01:09:34;24.50;;;7.15;;
42140;SDS011;27809;51.864;5.646;2023-07-31T01:12:07;18.60;;;6.78;;
42140;SDS011;27809;51.864;5.646;2023-07-31T01:14:37;20.52;;;5.68;;
42140;SDS011;27809;51.864;5.646;2023-07-31T01:17:03;21.80;;;6.28;;
42140;SDS011;27809;51.864;5.646;2023-07-31T01:19:29;20.10;;;6.20;;
42140;SDS011;27809;51.864;5.646;2023-07-31T01:22:03;15.07;;;5.45;;
42140;SDS011;27809;51.864;5.646;2023-07-31T01:24:54;14.65;;;5.40;;
42140;SDS011;27809;51.864;5.646;2023-07-31T01:27:42;21.85;;;7.03;;
42140;SDS011;27809;51.864;5.646;2023-07-31T01:30:29;18.52;;;4.93;;
42140;SDS011;27809;51.864;5.646;2023-07-31T01:33:02;25.02;;;6.22;;
42140;SDS011;27809;51.864;5.646;2023-07-31T01:35:36;21.02;;;6.55;;
42140;SDS011;27809;51.864;5.646;2023-07-31T01:38:02;20.17;;;5.90;;
42140;SDS011;27809;51.864;5.646;2023-07-31T01:40:29;14.95;;;5.18;;
42140;SDS011;27809;51.864;5.646;2023-07-31T01:42:54;18.15;;;5.70;;
42140;SDS011;27809;51.864;5.646;2023-07-31T01:45:20;18.75;;;6.85;;
42140;SDS011;27809;51.864;5.646;2023-07-31T01:47:46;25.48;;;6.50;;
42140;SDS011;27809;51.864;5.646;2023-07-31T01:50:11;13.77;;;4.82;;
42140;SDS011;27809;51.864;5.646;2023-07-31T01:52:37;12.15;;;4.10;;
42140;SDS011;27809;51.864;5.646;2023-07-31T01:55:03;17.08;;;5.25;;
42140;SDS011;27809;51.864;5.646;2023-07-31T01:57:28;15.68;;;5.53;;
42140;SDS011;27809;51.864;5.646;2023-07-31T01:59:54;10.90;;;3.63;;
42140;SDS011;27809;51.864;5.646;2023-07-31T02:02:20;16.00;;;4.95;;
42140;SDS011;27809;51.864;5.646;2023-07-31T02:04:45;15.85;;;4.57;;
42140;SDS011;27809;51.864;5.646;2023-07-31T02:07:11;20.08;;;5.13;;
42140;SDS011;27809;51.864;5.646;2023-07-31T02:09:37;13.35;;;4.07;;
42140;SDS011;27809;51.864;5.646;2023-07-31T02:12:02;14.05;;;4.38;;
42140;SDS011;27809;51.864;5.646;2023-07-31T02:14:28;16.23;;;4.75;;
42140;SDS011;27809;51.864;5.646;2023-07-31T02:16:54;14.07;;;4.00;;
42140;SDS011;27809;51.864;5.646;2023-07-31T02:19:19;19.02;;;3.95;;
42140;SDS011;27809;51.864;5.646;2023-07-31T02:21:45;17.83;;;5.70;;
42140;SDS011;27809;51.864;5.646;2023-07-31T02:24:10;13.45;;;4.32;;
42140;SDS011;27809;51.864;5.646;2023-07-31T02:26:36;15.38;;;4.15;;
42140;SDS011;27809;51.864;5.646;2023-07-31T02:29:01;15.57;;;4.30;;
42140;SDS011;27809;51.864;5.646;2023-07-31T02:31:27;14.80;;;3.90;;
42140;SDS011;27809;51.864;5.646;2023-07-31T02:33:52;16.52;;;5.25;;
42140;SDS011;27809;51.864;5.646;2023-07-31T02:36:18;16.58;;;4.53;;
42140;SDS011;27809;51.864;5.646;2023-07-31T02:38:44;10.73;;;4.55;;
42140;SDS011;27809;51.864;5.646;2023-07-31T02:41:09;20.17;;;5.43;;
42140;SDS011;27809;51.864;5.646;2023-07-31T02:43:35;25.80;;;6.35;;
42140;SDS011;27809;51.864;5.646;2023-07-31T02:46:00;15.10;;;6.38;;
42140;SDS011;27809;51.864;5.646;2023-07-31T02:48:26;13.85;;;5.43;;
42140;SDS011;27809;51.864;5.646;2023-07-31T02:50:51;13.95;;;4.80;;
42140;SDS011;27809;51.864;5.646;2023-07-31T02:53:17;13.50;;;4.15;;
42140;SDS011;27809;51.864;5.646;2023-07-31T02:55:42;16.33;;;4.45;;
42140;SDS011;27809;51.864;5.646;2023-07-31T02:58:08;16.02;;;4.60;;
42140;SDS011;27809;51.864;5.646;2023-07-31T03:00:33;15.27;;;4.68;;
42140;SDS011;27809;51.864;5.646;2023-07-31T03:02:59;13.40;;;4.50;;
42140;SDS011;27809;51.864;5.646;2023-07-31T03:05:24;14.77;;;3.95;;
42140;SDS011;27809;51.864;5.646;2023-07-31T03:07:50;19.10;;;4.30;;
42140;SDS011;27809;51.864;5.646;2023-07-31T03:10:15;14.88;;;4.68;;
42140;SDS011;27809;51.864;5.646;2023-07-31T03:12:41;16.92;;;3.95;;
42140;SDS011;27809;51.864;5.646;2023-07-31T03:15:07;10.48;;;4.53;;
42140;SDS011;27809;51.864;5.646;2023-07-31T03:17:32;15.93;;;4.50;;
42140;SDS011;27809;51.864;5.646;2023-07-31T03:19:58;17.20;;;4.30;;
42140;SDS011;27809;51.864;5.646;2023-07-31T03:22:24;25.50;;;4.60;;
42140;SDS011;27809;51.864;5.646;2023-07-31T03:24:49;18.63;;;4.20;;
42140;SDS011;27809;51.864;5.646;2023-07-31T03:27:15;13.70;;;5.05;;
42140;SDS011;27809;51.864;5.646;2023-07-31T03:29:40;17.77;;;4.70;;
42140;SDS011;27809;51.864;5.646;2023-07-31T03:32:06;14.98;;;4.22;;
42140;SDS011;27809;51.864;5.646;2023-07-31T03:34:31;14.32;;;3.60;;
42140;SDS011;27809;51.864;5.646;2023-07-31T03:36:57;15.93;;;3.65;;
42140;SDS011;27809;51.864;5.646;2023-07-31T03:39:23;9.40;;;3.15;;
42140;SDS011;27809;51.864;5.646;2023-07-31T03:41:49;14.77;;;4.18;;
42140;SDS011;27809;51.864;5.646;2023-07-31T03:44:14;12.57;;;4.00;;
42140;SDS011;27809;51.864;5.646;2023-07-31T03:46:40;11.60;;;3.80;;
42140;SDS011;27809;51.864;5.646;2023-07-31T03:49:05;15.05;;;4.25;;
42140;SDS011;27809;51.864;5.646;2023-07-31T03:51:31;17.77;;;4.22;;
42140;SDS011;27809;51.864;5.646;2023-07-31T03:53:56;24.15;;;4.10;;
42140;SDS011;27809;51.864;5.646;2023-07-31T03:56:22;15.18;;;4.10;;
42140;SDS011;27809;51.864;5.646;2023-07-31T03:58:47;17.15;;;4.90;;
42140;SDS011;27809;51.864;5.646;2023-07-31T04:01:13;14.30;;;4.05;;
42140;SDS011;27809;51.864;5.646;2023-07-31T04:03:38;11.18;;;3.60;;
42140;SDS011;27809;51.864;5.646;2023-07-31T04:06:04;13.95;;;3.13;;
42140;SDS011;27809;51.864;5.646;2023-07-31T04:08:29;12.48;;;3.85;;
42140;SDS011;27809;51.864;5.646;2023-07-31T04:10:55;12.43;;;3.20;;
42140;SDS011;27809;51.864;5.646;2023-07-31T04:13:21;13.13;;;3.65;;
42140;SDS011;27809;51.864;5.646;2023-07-31T04:15:48;15.38;;;4.55;;
42140;SDS011;27809;51.864;5.646;2023-07-31T04:18:15;14.93;;;3.60;;
42140;SDS011;27809;51.864;5.646;2023-07-31T04:20:41;8.57;;;3.67;;
42140;SDS011;27809;51.864;5.646;2023-07-31T04:23:06;13.05;;;3.63;;
42140;SDS011;27809;51.864;5.646;2023-07-31T04:25:32;17.77;;;3.75;;
42140;SDS011;27809;51.864;5.646;2023-07-31T04:27:59;8.40;;;3.05;;
42140;SDS011;27809;51.864;5.646;2023-07-31T04:30:25;20.65;;;3.58;;
42140;SDS011;27809;51.864;5.646;2023-07-31T04:32:51;19.70;;;3.60;;
42140;SDS011;27809;51.864;5.646;2023-07-31T04:35:16;14.20;;;3.80;;
42140;SDS011;27809;51.864;5.646;2023-07-31T04:37:42;15.93;;;3.88;;
42140;SDS011;27809;51.864;5.646;2023-07-31T04:40:07;9.68;;;3.90;;
42140;SDS011;27809;51.864;5.646;2023-07-31T04:42:33;16.27;;;4.80;;
42140;SDS011;27809;51.864;5.646;2023-07-31T04:44:59;10.95;;;4.35;;
42140;SDS011;27809;51.864;5.646;2023-07-31T04:47:25;20.98;;;4.65;;
42140;SDS011;27809;51.864;5.646;2023-07-31T04:49:50;18.98;;;4.50;;
42140;SDS011;27809;51.864;5.646;2023-07-31T04:52:16;17.83;;;5.43;;
42140;SDS011;27809;51.864;5.646;2023-07-31T04:54:41;12.07;;;3.15;;
42140;SDS011;27809;51.864;5.646;2023-07-31T04:57:07;17.45;;;4.28;;
42140;SDS011;27809;51.864;5.646;2023-07-31T04:59:32;13.13;;;4.07;;
42140;SDS011;27809;51.864;5.646;2023-07-31T05:01:58;10.40;;;3.50;;
42140;SDS011;27809;51.864;5.646;2023-07-31T05:04:23;13.68;;;5.18;;
42140;SDS011;27809;51.864;5.646;2023-07-31T05:06:49;8.85;;;3.17;;
42140;SDS011;27809;51.864;5.646;2023-07-31T05:09:14;10.50;;;3.55;;
42140;SDS011;27809;51.864;5.646;2023-07-31T05:11:40;7.90;;;3.20;;
42140;SDS011;27809;51.864;5.646;2023-07-31T05:14:07;8.10;;;3.40;;
42140;SDS011;27809;51.864;5.646;2023-07-31T05:16:33;14.95;;;3.50;;
42140;SDS011;27809;51.864;5.646;2023-07-31T05:18:58;18.45;;;3.88;;
42140;SDS011;27809;51.864;5.646;2023-07-31T05:21:24;14.80;;;4.32;;
42140;SDS011;27809;51.864;5.646;2023-07-31T05:23:50;11.15;;;3.58;;
42140;SDS011;27809;51.864;5.646;2023-07-31T05:26:15;7.82;;;3.53;;
42140;SDS011;27809;51.864;5.646;2023-07-31T05:28:41;12.23;;;3.63;;
42140;SDS011;27809;51.864;5.646;2023-07-31T05:31:06;10.38;;;2.67;;
42140;SDS011;27809;51.864;5.646;2023-07-31T05:33:32;11.38;;;3.47;;
42140;SDS011;27809;51.864;5.646;2023-07-31T05:35:58;8.68;;;3.17;;
42140;SDS011;27809;51.864;5.646;2023-07-31T05:38:23;13.85;;;3.83;;
42140;SDS011;27809;51.864;5.646;2023-07-31T05:40:49;8.80;;;2.80;;
42140;SDS011;27809;51.864;5.646;2023-07-31T05:43:14;11.70;;;3.38;;
42140;SDS011;27809;51.864;5.646;2023-07-31T05:45:41;15.43;;;2.88;;
42140;SDS011;27809;51.864;5.646;2023-07-31T05:48:07;10.25;;;2.95;;
42140;SDS011;27809;51.864;5.646;2023-07-31T05:50:33;13.63;;;4.32;;
42140;SDS011;27809;51.864;5.646;2023-07-31T05:52:58;14.00;;;3.95;;
42140;SDS011;27809;51.864;5.646;2023-07-31T05:55:25;12.05;;;2.35;;
42140;SDS011;27809;51.864;5.646;2023-07-31T05:57:53;12.65;;;2.88;;
42140;SDS011;27809;51.864;5.646;2023-07-31T06:00:19;17.35;;;4.68;;
42140;SDS011;27809;51.864;5.646;2023-07-31T06:02:45;15.15;;;3.25;;
42140;SDS011;27809;51.864;5.646;2023-07-31T06:05:12;11.55;;;3.92;;
42140;SDS011;27809;51.864;5.646;2023-07-31T06:07:37;12.15;;;4.13;;
42140;SDS011;27809;51.864;5.646;2023-07-31T06:10:03;16.20;;;5.07;;
42140;SDS011;27809;51.864;5.646;2023-07-31T06:12:31;20.27;;;3.83;;
42140;SDS011;27809;51.864;5.646;2023-07-31T06:14:57;24.92;;;5.15;;
42140;SDS011;27809;51.864;5.646;2023-07-31T06:17:23;17.08;;;3.92;;
42140;SDS011;27809;51.864;5.646;2023-07-31T06:19:49;14.23;;;3.85;;
42140;SDS011;27809;51.864;5.646;2023-07-31T06:22:15;12.10;;;3.53;;
42140;SDS011;27809;51.864;5.646;2023-07-31T06:24:40;14.50;;;3.40;;
42140;SDS011;27809;51.864;5.646;2023-07-31T06:27:06;13.30;;;3.20;;
42140;SDS011;27809;51.864;5.646;2023-07-31T06:29:32;12.05;;;2.40;;
42140;SDS011;27809;51.864;5.646;2023-07-31T06:31:57;12.13;;;2.30;;
42140;SDS011;27809;51.864;5.646;2023-07-31T06:34:23;12.95;;;2.58;;
42140;SDS011;27809;51.864;5.646;2023-07-31T06:36:49;8.70;;;2.72;;
42140;SDS011;27809;51.864;5.646;2023-07-31T06:39:14;7.82;;;1.52;;
42140;SDS011;27809;51.864;5.646;2023-07-31T06:41:40;7.60;;;1.45;;
42140;SDS011;27809;51.864;5.646;2023-07-31T06:44:06;8.32;;;2.58;;
42140;SDS011;27809;51.864;5.646;2023-07-31T06:46:32;9.77;;;3.47;;
42140;SDS011;27809;51.864;5.646;2023-07-31T06:48:57;5.53;;;1.60;;
42140;SDS011;27809;51.864;5.646;2023-07-31T06:51:23;4.20;;;1.30;;
42140;SDS011;27809;51.864;5.646;2023-07-31T06:53:48;4.00;;;1.35;;
42140;SDS011;27809;51.864;5.646;2023-07-31T06:56:14;2.92;;;1.08;;
42140;SDS011;27809;51.864;5.646;2023-07-31T06:58:39;2.72;;;1.30;;
42140;SDS011;27809;51.864;5.646;2023-07-31T07:01:05;3.60;;;1.52;;
42140;SDS011;27809;51.864;5.646;2023-07-31T07:03:30;8.55;;;0.82;;
42140;SDS011;27809;51.864;5.646;2023-07-31T07:05:57;2.58;;;0.90;;
42140;SDS011;27809;51.864;5.646;2023-07-31T07:08:23;2.03;;;0.75;;
42140;SDS011;27809;51.864;5.646;2023-07-31T07:10:49;2.83;;;0.93;;
42140;SDS011;27809;51.864;5.646;2023-07-31T07:13:15;1.63;;;0.90;;
42140;SDS011;27809;51.864;5.646;2023-07-31T07:15:40;2.05;;;0.60;;
42140;SDS011;27809;51.864;5.646;2023-07-31T07:18:06;1.42;;;0.60;;
42140;SDS011;27809;51.864;5.646;2023-07-31T07:20:32;2.08;;;1.05;;
42140;SDS011;27809;51.864;5.646;2023-07-31T07:22:57;3.05;;;0.95;;
42140;SDS011;27809;51.864;5.646;2023-07-31T07:25:23;3.10;;;0.65;;
42140;SDS011;27809;51.864;5.646;2023-07-31T07:27:49;0.90;;;0.50;;
42140;SDS011;27809;51.864;5.646;2023-07-31T07:30:14;2.25;;;0.57;;
42140;SDS011;27809;51.864;5.646;2023-07-31T07:32:40;1.67;;;0.60;;
42140;SDS011;27809;51.864;5.646;2023-07-31T07:35:05;1.30;;;0.50;;
42140;SDS011;27809;51.864;5.646;2023-07-31T07:37:31;0.90;;;0.30;;
42140;SDS011;27809;51.864;5.646;2023-07-31T07:39:57;1.98;;;0.45;;
42140;SDS011;27809;51.864;5.646;2023-07-31T07:42:23;0.82;;;0.47;;
42140;SDS011;27809;51.864;5.646;2023-07-31T07:44:48;0.80;;;0.40;;
42140;SDS011;27809;51.864;5.646;2023-07-31T07:47:14;0.90;;;0.50;;
42140;SDS011;27809;51.864;5.646;2023-07-31T07:49:39;4.88;;;0.63;;
42140;SDS011;27809;51.864;5.646;2023-07-31T07:52:05;2.35;;;0.40;;
42140;SDS011;27809;51.864;5.646;2023-07-31T07:54:31;3.83;;;0.50;;
42140;SDS011;27809;51.864;5.646;2023-07-31T07:56:57;0.95;;;0.60;;
42140;SDS011;27809;51.864;5.646;2023-07-31T07:59:22;1.85;;;0.98;;
42140;SDS011;27809;51.864;5.646;2023-07-31T08:01:48;4.70;;;1.67;;
42140;SDS011;27809;51.864;5.646;2023-07-31T08:04:13;2.20;;;0.55;;
42140;SDS011;27809;51.864;5.646;2023-07-31T08:06:39;1.70;;;0.63;;
42140;SDS011;27809;51.864;5.646;2023-07-31T08:09:05;4.78;;;1.08;;
42140;SDS011;27809;51.864;5.646;2023-07-31T08:11:31;6.22;;;0.93;;
42140;SDS011;27809;51.864;5.646;2023-07-31T08:13:57;2.30;;;1.27;;
42140;SDS011;27809;51.864;5.646;2023-07-31T08:16:23;4.55;;;0.80;;
42140;SDS011;27809;51.864;5.646;2023-07-31T08:18:48;5.07;;;1.00;;
42140;SDS011;27809;51.864;5.646;2023-07-31T08:21:14;3.13;;;1.50;;
42140;SDS011;27809;51.864;5.646;2023-07-31T08:23:40;3.40;;;1.25;;
42140;SDS011;27809;51.864;5.646;2023-07-31T08:26:05;2.92;;;0.95;;
42140;SDS011;27809;51.864;5.646;2023-07-31T08:28:31;2.15;;;1.23;;
42140;SDS011;27809;51.864;5.646;2023-07-31T08:30:56;2.75;;;1.10;;
42140;SDS011;27809;51.864;5.646;2023-07-31T08:33:22;2.97;;;0.80;;
42140;SDS011;27809;51.864;5.646;2023-07-31T08:35:47;1.52;;;0.88;;
42140;SDS011;27809;51.864;5.646;2023-07-31T08:38:13;2.65;;;0.88;;
42140;SDS011;27809;51.864;5.646;2023-07-31T08:40:39;1.52;;;0.93;;
42140;SDS011;27809;51.864;5.646;2023-07-31T08:43:05;2.35;;;0.90;;
42140;SDS011;27809;51.864;5.646;2023-07-31T08:45:32;2.33;;;1.02;;
42140;SDS011;27809;51.864;5.646;2023-07-31T08:47:57;3.38;;;1.30;;
42140;SDS011;27809;51.864;5.646;2023-07-31T08:50:24;6.05;;;1.50;;
42140;SDS011;27809;51.864;5.646;2023-07-31T08:52:50;2.67;;;1.20;;
42140;SDS011;27809;51.864;5.646;2023-07-31T08:55:17;3.17;;;1.75;;
42140;SDS011;27809;51.864;5.646;2023-07-31T08:57:43;3.25;;;1.10;;
42140;SDS011;27809;51.864;5.646;2023-07-31T09:00:10;2.72;;;1.60;;
42140;SDS011;27809;51.864;5.646;2023-07-31T09:02:46;3.72;;;1.55;;
42140;SDS011;27809;51.864;5.646;2023-07-31T09:05:16;4.68;;;1.50;;
42140;SDS011;27809;51.864;5.646;2023-07-31T09:07:44;2.85;;;2.22;;
42140;SDS011;27809;51.864;5.646;2023-07-31T09:10:12;4.20;;;1.95;;
42140;SDS011;27809;51.864;5.646;2023-07-31T09:12:37;5.10;;;1.73;;
42140;SDS011;27809;51.864;5.646;2023-07-31T09:15:04;3.00;;;1.95;;
42140;SDS011;27809;51.864;5.646;2023-07-31T09:17:30;4.05;;;2.13;;
42140;SDS011;27809;51.864;5.646;2023-07-31T09:22:42;5.90;;;2.72;;
42140;SDS011;27809;51.864;5.646;2023-07-31T09:27:52;3.75;;;2.90;;
42140;SDS011;27809;51.864;5.646;2023-07-31T09:30:28;4.47;;;2.30;;
42140;SDS011;27809;51.864;5.646;2023-07-31T09:33:01;6.80;;;2.92;;
42140;SDS011;27809;51.864;5.646;2023-07-31T09:35:32;6.82;;;3.03;;
42140;SDS011;27809;51.864;5.646;2023-07-31T09:38:03;10.20;;;3.67;;
42140;SDS011;27809;51.864;5.646;2023-07-31T09:40:31;5.65;;;3.03;;
42140;SDS011;27809;51.864;5.646;2023-07-31T09:43:01;10.15;;;4.43;;
42140;SDS011;27809;51.864;5.646;2023-07-31T09:45:36;6.35;;;3.10;;
42140;SDS011;27809;51.864;5.646;2023-07-31T09:48:03;5.65;;;4.10;;
42140;SDS011;27809;51.864;5.646;2023-07-31T09:50:31;7.20;;;3.75;;
42140;SDS011;27809;51.864;5.646;2023-07-31T09:52:57;8.65;;;3.58;;
42140;SDS011;27809;51.864;5.646;2023-07-31T09:55:23;6.45;;;3.10;;
42140;SDS011;27809;51.864;5.646;2023-07-31T09:57:49;6.07;;;4.07;;
42140;SDS011;27809;51.864;5.646;2023-07-31T10:00:16;9.20;;;3.70;;
42140;SDS011;27809;51.864;5.646;2023-07-31T10:02:44;9.38;;;3.33;;
42140;SDS011;27809;51.864;5.646;2023-07-31T10:05:12;5.75;;;3.80;;
42140;SDS011;27809;51.864;5.646;2023-07-31T10:07:42;8.70;;;4.57;;
42140;SDS011;27809;51.864;5.646;2023-07-31T10:10:10;6.45;;;4.00;;
42140;SDS011;27809;51.864;5.646;2023-07-31T10:12:36;6.00;;;4.45;;
42140;SDS011;27809;51.864;5.646;2023-07-31T10:15:03;10.68;;;4.32;;
42140;SDS011;27809;51.864;5.646;2023-07-31T10:17:29;7.93;;;4.00;;
42140;SDS011;27809;51.864;5.646;2023-07-31T10:19:56;7.70;;;4.28;;
42140;SDS011;27809;51.864;5.646;2023-07-31T10:22:28;7.65;;;3.72;;
42140;SDS011;27809;51.864;5.646;2023-07-31T10:24:54;5.75;;;4.22;;
42140;SDS011;27809;51.864;5.646;2023-07-31T10:27:23;10.63;;;3.80;;
42140;SDS011;27809;51.864;5.646;2023-07-31T10:29:49;8.45;;;3.80;;
42140;SDS011;27809;51.864;5.646;2023-07-31T10:32:16;5.82;;;3.83;;
42140;SDS011;27809;51.864;5.646;2023-07-31T10:34:42;6.13;;;3.75;;
42140;SDS011;27809;51.864;5.646;2023-07-31T10:37:21;4.45;;;3.00;;
42140;SDS011;27809;51.864;5.646;2023-07-31T10:39:55;6.20;;;2.88;;
42140;SDS011;27809;51.864;5.646;2023-07-31T10:42:28;5.45;;;3.35;;
42140;SDS011;27809;51.864;5.646;2023-07-31T10:45:02;5.13;;;3.08;;
42140;SDS011;27809;51.864;5.646;2023-07-31T10:47:29;5.65;;;2.70;;
42140;SDS011;27809;51.864;5.646;2023-07-31T10:52:46;7.05;;;2.28;;
42140;SDS011;27809;51.864;5.646;2023-07-31T10:57:54;5.85;;;2.72;;
42140;SDS011;27809;51.864;5.646;2023-07-31T11:00:28;4.32;;;2.72;;
42140;SDS011;27809;51.864;5.646;2023-07-31T11:03:04;5.85;;;2.50;;
42140;SDS011;27809;51.864;5.646;2023-07-31T11:05:50;3.92;;;2.40;;
42140;SDS011;27809;51.864;5.646;2023-07-31T11:08:27;13.98;;;3.67;;
42140;SDS011;27809;51.864;5.646;2023-07-31T11:13:28;14.35;;;3.05;;
42140;SDS011;27809;51.864;5.646;2023-07-31T11:15:54;4.03;;;2.60;;
42140;SDS011;27809;51.864;5.646;2023-07-31T11:18:19;4.90;;;2.65;;
42140;SDS011;27809;51.864;5.646;2023-07-31T11:20:45;5.07;;;2.60;;
42140;SDS011;27809;51.864;5.646;2023-07-31T11:23:10;4.55;;;2.45;;
42140;SDS011;27809;51.864;5.646;2023-07-31T11:25:37;3.33;;;2.00;;
42140;SDS011;27809;51.864;5.646;2023-07-31T11:28:08;5.82;;;2.42;;
42140;SDS011;27809;51.864;5.646;2023-07-31T11:30:38;5.72;;;2.00;;
42140;SDS011;27809;51.864;5.646;2023-07-31T11:33:05;5.40;;;1.90;;
42140;SDS011;27809;51.864;5.646;2023-07-31T11:35:32;7.45;;;2.28;;
42140;SDS011;27809;51.864;5.646;2023-07-31T11:37:59;3.40;;;1.52;;
42140;SDS011;27809;51.864;5.646;2023-07-31T11:40:25;5.32;;;1.63;;
42140;SDS011;27809;51.864;5.646;2023-07-31T11:42:57;4.18;;;1.42;;
42140;SDS011;27809;51.864;5.646;2023-07-31T11:45:28;2.58;;;1.90;;
42140;SDS011;27809;51.864;5.646;2023-07-31T11:47:55;3.20;;;1.60;;
42140;SDS011;27809;51.864;5.646;2023-07-31T11:50:21;4.50;;;2.28;;
42140;SDS011;27809;51.864;5.646;2023-07-31T11:52:50;4.07;;;1.52;;
42140;SDS011;27809;51.864;5.646;2023-07-31T11:55:22;4.53;;;1.60;;
42140;SDS011;27809;51.864;5.646;2023-07-31T11:57:48;2.75;;;1.50;;
42140;SDS011;27809;51.864;5.646;2023-07-31T12:00:14;5.32;;;1.88;;
42140;SDS011;27809;51.864;5.646;2023-07-31T12:02:40;4.15;;;1.75;;
42140;SDS011;27809;51.864;5.646;2023-07-31T12:05:06;6.45;;;1.98;;
42140;SDS011;27809;51.864;5.646;2023-07-31T12:07:46;4.05;;;1.90;;
42140;SDS011;27809;51.864;5.646;2023-07-31T12:10:24;4.93;;;1.60;;
42140;SDS011;27809;51.864;5.646;2023-07-31T12:17:59;6.88;;;2.40;;
42140;SDS011;27809;51.864;5.646;2023-07-31T12:20:25;5.68;;;2.78;;
42140;SDS011;27809;51.864;5.646;2023-07-31T12:22:50;5.03;;;1.83;;
42140;SDS011;27809;51.864;5.646;2023-07-31T12:25:16;4.85;;;2.33;;
42140;SDS011;27809;51.864;5.646;2023-07-31T12:27:44;5.78;;;3.33;;
42140;SDS011;27809;51.864;5.646;2023-07-31T12:30:26;6.97;;;2.65;;
42140;SDS011;27809;51.864;5.646;2023-07-31T12:32:52;7.28;;;2.67;;
42140;SDS011;27809;51.864;5.646;2023-07-31T12:35:18;9.13;;;3.22;;
42140;SDS011;27809;51.864;5.646;2023-07-31T12:37:43;5.53;;;2.58;;
42140;SDS011;27809;51.864;5.646;2023-07-31T12:40:09;7.70;;;3.08;;
42140;SDS011;27809;51.864;5.646;2023-07-31T12:42:35;8.57;;;2.55;;
42140;SDS011;27809;51.864;5.646;2023-07-31T12:45:01;3.97;;;2.47;;
42140;SDS011;27809;51.864;5.646;2023-07-31T12:47:26;6.57;;;3.08;;
42140;SDS011;27809;51.864;5.646;2023-07-31T12:49:52;4.88;;;2.45;;
42140;SDS011;27809;51.864;5.646;2023-07-31T12:52:17;4.78;;;2.60;;
42140;SDS011;27809;51.864;5.646;2023-07-31T12:54:42;3.58;;;2.55;;
42140;SDS011;27809;51.864;5.646;2023-07-31T12:57:08;2.95;;;1.75;;
42140;SDS011;27809;51.864;5.646;2023-07-31T12:59:33;6.20;;;3.38;;
42140;SDS011;27809;51.864;5.646;2023-07-31T13:01:59;7.38;;;3.00;;
42140;SDS011;27809;51.864;5.646;2023-07-31T13:04:25;4.15;;;2.63;;
42140;SDS011;27809;51.864;5.646;2023-07-31T13:06:50;6.20;;;2.95;;
42140;SDS011;27809;51.864;5.646;2023-07-31T13:09:16;7.13;;;3.13;;
42140;SDS011;27809;51.864;5.646;2023-07-31T13:11:42;6.97;;;2.72;;
42140;SDS011;27809;51.864;5.646;2023-07-31T13:14:08;5.88;;;3.40;;
42140;SDS011;27809;51.864;5.646;2023-07-31T13:16:33;5.05;;;3.40;;
42140;SDS011;27809;51.864;5.646;2023-07-31T13:18:59;5.65;;;2.85;;
42140;SDS011;27809;51.864;5.646;2023-07-31T13:21:24;5.45;;;2.38;;
42140;SDS011;27809;51.864;5.646;2023-07-31T13:23:50;5.90;;;2.75;;
42140;SDS011;27809;51.864;5.646;2023-07-31T13:26:15;4.45;;;3.13;;
42140;SDS011;27809;51.864;5.646;2023-07-31T13:28:41;4.15;;;2.10;;
42140;SDS011;27809;51.864;5.646;2023-07-31T13:31:06;5.93;;;3.00;;
42140;SDS011;27809;51.864;5.646;2023-07-31T13:33:32;4.70;;;2.97;;
42140;SDS011;27809;51.864;5.646;2023-07-31T13:35:57;4.75;;;3.17;;
42140;SDS011;27809;51.864;5.646;2023-07-31T13:38:23;7.30;;;2.80;;
42140;SDS011;27809;51.864;5.646;2023-07-31T13:40:48;6.70;;;3.05;;
42140;SDS011;27809;51.864;5.646;2023-07-31T13:43:14;5.70;;;2.67;;
42140;SDS011;27809;51.864;5.646;2023-07-31T13:45:39;4.35;;;2.42;;
42140;SDS011;27809;51.864;5.646;2023-07-31T13:48:05;5.35;;;3.33;;
42140;SDS011;27809;51.864;5.646;2023-07-31T13:50:30;5.57;;;3.03;;
42140;SDS011;27809;51.864;5.646;2023-07-31T13:52:56;6.28;;;3.25;;
42140;SDS011;27809;51.864;5.646;2023-07-31T13:55:21;12.73;;;4.03;;
42140;SDS011;27809;51.864;5.646;2023-07-31T13:57:47;6.15;;;3.00;;
42140;SDS011;27809;51.864;5.646;2023-07-31T14:00:13;7.30;;;3.20;;
42140;SDS011;27809;51.864;5.646;2023-07-31T14:02:39;7.32;;;3.15;;
42140;SDS011;27809;51.864;5.646;2023-07-31T14:05:04;6.43;;;3.72;;
42140;SDS011;27809;51.864;5.646;2023-07-31T14:07:31;7.88;;;3.45;;
42140;SDS011;27809;51.864;5.646;2023-07-31T14:09:57;7.72;;;3.30;;
42140;SDS011;27809;51.864;5.646;2023-07-31T14:12:22;5.57;;;3.38;;
42140;SDS011;27809;51.864;5.646;2023-07-31T14:14:48;6.47;;;2.80;;
42140;SDS011;27809;51.864;5.646;2023-07-31T14:17:13;7.10;;;2.40;;
42140;SDS011;27809;51.864;5.646;2023-07-31T14:19:39;8.30;;;2.83;;
42140;SDS011;27809;51.864;5.646;2023-07-31T14:22:05;10.27;;;3.47;;
42140;SDS011;27809;51.864;5.646;2023-07-31T14:24:30;11.05;;;3.72;;
42140;SDS011;27809;51.864;5.646;2023-07-31T14:26:56;7.80;;;3.80;;
42140;SDS011;27809;51.864;5.646;2023-07-31T14:29:21;7.57;;;3.40;;
42140;SDS011;27809;51.864;5.646;2023-07-31T14:31:47;9.18;;;3.75;;
42140;SDS011;27809;51.864;5.646;2023-07-31T14:34:12;7.07;;;3.08;;
42140;SDS011;27809;51.864;5.646;2023-07-31T14:36:38;6.70;;;2.58;;
42140;SDS011;27809;51.864;5.646;2023-07-31T14:39:04;10.43;;;2.85;;
42140;SDS011;27809;51.864;5.646;2023-07-31T14:41:29;11.23;;;4.03;;
42140;SDS011;27809;51.864;5.646;2023-07-31T14:43:54;6.75;;;3.70;;
42140;SDS011;27809;51.864;5.646;2023-07-31T14:46:20;8.07;;;3.83;;
42140;SDS011;27809;51.864;5.646;2023-07-31T14:48:45;8.05;;;3.55;;
42140;SDS011;27809;51.864;5.646;2023-07-31T14:51:11;8.38;;;2.90;;
42140;SDS011;27809;51.864;5.646;2023-07-31T14:53:36;11.88;;;4.10;;
42140;SDS011;27809;51.864;5.646;2023-07-31T14:56:02;5.50;;;2.70;;
42140;SDS011;27809;51.864;5.646;2023-07-31T14:58:28;9.82;;;3.45;;
42140;SDS011;27809;51.864;5.646;2023-07-31T15:00:53;8.02;;;3.28;;